Time;durP1;ratioP1;P1;durP2;ratioP2;P2;SDS_P1;SDS_P2;PMS_P1;PMS_P2;Temp;Humidity;BMP_temperature;BMP_pressure;BME280_temperature;BME280_humidity;BME280_pressure;Samples;Min_cycle;Max_cycle;Signal;HPM_P1;HPM_P2
2022/04/14 00:00:27;;;;;;;6.18;2.13;;;13.20;99.90;;;;;;4984262;28;20039;-69
2022/04/14 00:02:56;;;;;;;5.45;2.40;;;13.20;99.90;;;;;;4998144;28;20037;-71
2022/04/14 00:05:23;;;;;;;9.05;2.17;;;13.20;99.90;;;;;;4977734;28;20138;-70
2022/04/14 00:07:48;;;;;;;11.10;2.60;;;13.30;99.90;;;;;;4994657;28;20035;-70
2022/04/14 00:10:15;;;;;;;9.90;2.20;;;13.30;99.90;;;;;;4993536;28;20458;-70
2022/04/14 00:12:42;;;;;;;9.05;2.22;;;13.30;99.90;;;;;;4996486;28;20053;-70
2022/04/14 00:15:11;;;;;;;10.13;3.00;;;13.30;99.90;;;;;;5010569;28;20050;-69
2022/04/14 00:17:37;;;;;;;8.93;2.42;;;13.40;99.90;;;;;;4998371;28;20042;-70
2022/04/14 00:20:06;;;;;;;8.32;2.92;;;13.30;99.90;;;;;;4994741;28;20947;-70
2022/04/14 00:22:33;;;;;;;9.23;2.13;;;13.30;99.90;;;;;;4997797;28;20034;-70
2022/04/14 00:24:59;;;;;;;5.53;2.10;;;13.30;99.90;;;;;;5012270;28;20038;-70
2022/04/14 00:27:25;;;;;;;5.70;2.08;;;13.40;99.90;;;;;;4977546;28;20913;-70
2022/04/14 00:29:52;;;;;;;12.38;2.50;;;13.40;99.90;;;;;;5012202;28;20064;-70
2022/04/14 00:32:17;;;;;;;8.30;2.05;;;13.40;99.90;;;;;;5015529;28;20033;-70
2022/04/14 00:34:44;;;;;;;8.43;1.95;;;13.40;99.90;;;;;;5016693;28;20042;-70
2022/04/14 00:37:11;;;;;;;9.43;2.10;;;13.30;99.90;;;;;;5022013;28;20591;-70
2022/04/14 00:39:40;;;;;;;7.05;2.03;;;13.30;99.90;;;;;;4999053;28;20551;-70
2022/04/14 00:42:12;;;;;;;8.40;2.08;;;13.30;99.90;;;;;;5017730;28;20046;-70
2022/04/14 00:44:38;;;;;;;6.68;1.80;;;13.40;99.90;;;;;;5029321;28;20042;-69
2022/04/14 00:47:06;;;;;;;10.52;2.65;;;13.30;99.90;;;;;;5018009;28;20084;-69
2022/04/14 00:49:32;;;;;;;8.23;2.35;;;13.30;99.90;;;;;;5029563;28;20053;-70
2022/04/14 00:52:02;;;;;;;8.57;2.50;;;13.30;99.90;;;;;;5018277;28;20124;-70
2022/04/14 00:54:31;;;;;;;9.70;2.35;;;13.30;99.90;;;;;;5033858;28;20122;-70
2022/04/14 00:57:00;;;;;;;12.52;2.28;;;13.20;99.90;;;;;;5020551;28;20040;-69
2022/04/14 00:59:26;;;;;;;10.15;2.28;;;13.20;99.90;;;;;;5029982;28;20050;-70
2022/04/14 01:01:54;;;;;;;9.75;1.83;;;13.20;99.90;;;;;;5019441;28;20405;-70
2022/04/14 01:04:20;;;;;;;8.80;2.47;;;13.20;99.90;;;;;;5013239;28;20437;-70
2022/04/14 01:06:48;;;;;;;8.43;2.78;;;13.10;99.90;;;;;;5030514;28;20485;-70
2022/04/14 01:09:19;;;;;;;12.45;3.28;;;13.10;99.90;;;;;;5014542;28;20436;-70
2022/04/14 01:11:50;;;;;;;7.78;1.92;;;13.10;99.90;;;;;;5022496;28;20043;-70
2022/04/14 01:14:31;;;;;;;10.68;2.15;;;13.10;99.90;;;;;;5034507;28;20041;-70
2022/04/14 01:17:08;;;;;;;11.30;2.10;;;13.00;99.90;;;;;;5019876;28;20112;-70
2022/04/14 01:19:36;;;;;;;7.20;2.30;;;12.90;99.90;;;;;;5018021;28;20042;-70
2022/04/14 01:22:26;;;;;;;9.43;2.38;;;13.00;99.90;;;;;;5021524;28;20933;-70
2022/04/14 01:24:57;;;;;;;8.73;2.30;;;13.00;99.90;;;;;;5007402;28;20159;-70
2022/04/14 01:27:23;;;;;;;9.20;2.28;;;13.00;99.90;;;;;;5000166;28;20041;-70
2022/04/14 01:29:51;;;;;;;8.07;2.53;;;12.90;99.90;;;;;;5018952;28;20048;-70
2022/04/14 01:32:22;;;;;;;10.20;2.58;;;12.90;99.90;;;;;;5021276;28;20037;-71
2022/04/14 01:34:50;;;;;;;8.98;2.30;;;12.90;99.90;;;;;;5019398;28;20040;-69
2022/04/14 01:37:16;;;;;;;12.43;2.05;;;13.00;99.90;;;;;;4998800;28;20041;-70
2022/04/14 01:39:43;;;;;;;10.15;2.40;;;13.00;99.90;;;;;;5018843;28;20124;-69
2022/04/14 01:42:09;;;;;;;10.68;2.20;;;13.00;99.90;;;;;;5018737;28;20045;-70
2022/04/14 01:44:35;;;;;;;9.90;2.10;;;13.10;99.90;;;;;;5034695;28;20045;-69
2022/04/14 01:47:02;;;;;;;8.00;1.92;;;13.10;99.90;;;;;;5017259;28;20050;-70
2022/04/14 01:49:28;;;;;;;10.18;2.53;;;13.00;99.90;;;;;;5015515;28;20041;-70
2022/04/14 01:51:55;;;;;;;8.60;2.50;;;13.00;99.90;;;;;;5019614;28;20480;-70
2022/04/14 01:54:22;;;;;;;10.38;2.10;;;13.10;99.90;;;;;;5036075;28;20034;-70
2022/04/14 01:56:49;;;;;;;7.18;2.28;;;13.00;99.90;;;;;;5017893;28;20505;-71
2022/04/14 01:59:17;;;;;;;9.80;2.30;;;13.00;99.90;;;;;;5020424;28;20137;-70
2022/04/14 02:01:43;;;;;;;7.35;2.83;;;13.10;99.90;;;;;;5021230;28;20095;-70
2022/04/14 02:04:08;;;;;;;7.47;2.05;;;13.20;99.90;;;;;;5017067;28;20428;-69
2022/04/14 02:06:35;;;;;;;9.52;2.35;;;13.20;99.90;;;;;;5019163;28;20053;-69
2022/04/14 02:09:01;;;;;;;12.20;2.75;;;13.30;99.90;;;;;;5021458;28;20033;-70
2022/04/14 02:11:28;;;;;;;8.80;2.00;;;13.30;99.90;;;;;;5032054;28;20441;-69
2022/04/14 02:13:53;;;;;;;10.18;2.35;;;13.40;99.90;;;;;;5002056;28;20107;-70
2022/04/14 02:16:20;;;;;;;11.20;2.78;;;13.40;99.90;;;;;;5037203;28;20046;-71
2022/04/14 02:18:45;;;;;;;10.65;2.38;;;13.40;99.90;;;;;;5004078;28;20046;-70
2022/04/14 02:21:13;;;;;;;9.13;2.15;;;13.50;99.90;;;;;;5017153;28;20101;-69
2022/04/14 02:23:38;;;;;;;10.73;2.42;;;13.50;99.90;;;;;;5022138;28;20044;-69
2022/04/14 02:26:04;;;;;;;12.07;2.60;;;13.60;99.90;;;;;;5032893;28;20030;-69
2022/04/14 02:28:30;;;;;;;10.70;2.10;;;13.60;99.90;;;;;;5032957;28;20476;-71
2022/04/14 02:30:56;;;;;;;7.70;2.13;;;13.50;99.90;;;;;;5018485;28;20504;-70
2022/04/14 02:33:22;;;;;;;8.82;2.42;;;13.60;99.90;;;;;;5001219;28;20042;-69
2022/04/14 02:35:49;;;;;;;7.90;2.20;;;13.60;99.90;;;;;;5020036;28;20592;-70
2022/04/14 02:38:14;;;;;;;8.85;2.72;;;13.60;99.90;;;;;;5017524;28;20041;-70
2022/04/14 02:40:40;;;;;;;8.35;2.20;;;13.70;99.90;;;;;;5000898;28;20049;-69
2022/04/14 02:43:07;;;;;;;8.60;2.22;;;13.70;99.90;;;;;;4998476;28;20116;-70
2022/04/14 02:45:32;;;;;;;11.18;2.25;;;13.70;99.90;;;;;;5019260;28;20038;-70
2022/04/14 02:47:58;;;;;;;10.07;2.05;;;13.60;99.90;;;;;;5015115;28;20064;-70
2022/04/14 02:50:24;;;;;;;7.63;2.25;;;13.60;99.90;;;;;;5016567;28;20469;-69
2022/04/14 02:52:51;;;;;;;6.88;2.00;;;13.60;99.90;;;;;;5020391;28;20091;-70
2022/04/14 02:55:20;;;;;;;7.00;2.38;;;13.60;99.90;;;;;;5034005;28;20064;-70
2022/04/14 02:57:48;;;;;;;8.00;2.15;;;13.60;99.90;;;;;;5015594;28;20042;-70
2022/04/14 03:00:14;;;;;;;10.50;1.95;;;13.60;99.90;;;;;;5035016;28;20140;-69
2022/04/14 03:02:40;;;;;;;7.93;2.20;;;13.60;99.90;;;;;;5000208;28;20072;-71
2022/04/14 03:05:07;;;;;;;8.38;2.80;;;13.70;99.90;;;;;;5032086;28;20053;-70
2022/04/14 03:07:34;;;;;;;6.05;2.08;;;13.60;99.90;;;;;;5018062;28;20041;-70
2022/04/14 03:10:01;;;;;;;8.15;2.17;;;13.70;99.90;;;;;;5000789;28;20030;-70
2022/04/14 03:12:38;;;;;;;8.25;2.00;;;13.70;99.90;;;;;;5018374;28;20037;-69
2022/04/14 03:15:05;;;;;;;9.90;2.10;;;13.70;99.90;;;;;;5018767;28;20529;-69
2022/04/14 03:17:30;;;;;;;10.73;2.30;;;13.70;99.90;;;;;;5016637;28;20033;-70
2022/04/14 03:19:57;;;;;;;9.43;2.55;;;13.60;99.90;;;;;;5013423;28;20508;-70
2022/04/14 03:22:22;;;;;;;7.53;1.80;;;13.60;99.90;;;;;;5017796;28;20046;-69
2022/04/14 03:24:48;;;;;;;5.22;1.58;;;13.60;99.90;;;;;;5013591;28;20112;-70
2022/04/14 03:27:14;;;;;;;6.35;2.00;;;13.60;99.90;;;;;;5017322;28;20047;-69
2022/04/14 03:29:41;;;;;;;5.32;2.47;;;13.70;99.90;;;;;;5017923;28;20452;-70
2022/04/14 03:32:08;;;;;;;7.32;1.95;;;13.70;99.90;;;;;;4998209;28;20030;-70
2022/04/14 03:34:34;;;;;;;6.20;2.03;;;13.70;99.90;;;;;;5034719;28;20381;-70
2022/04/14 03:36:59;;;;;;;13.25;1.90;;;13.70;99.90;;;;;;5019733;28;20051;-70
2022/04/14 03:39:25;;;;;;;8.48;2.22;;;13.70;99.90;;;;;;4996310;28;20045;-70
2022/04/14 03:41:53;;;;;;;8.35;2.00;;;13.80;99.90;;;;;;5032478;28;20042;-70
2022/04/14 03:44:19;;;;;;;9.57;2.22;;;13.80;99.90;;;;;;5016337;28;20149;-69
2022/04/14 03:46:45;;;;;;;6.22;1.95;;;13.90;99.90;;;;;;5019705;28;20057;-70
2022/04/14 03:49:11;;;;;;;11.82;2.45;;;13.80;99.90;;;;;;5015847;28;20037;-70
2022/04/14 03:51:37;;;;;;;7.88;2.70;;;13.90;99.90;;;;;;5031924;28;20040;-69
2022/04/14 03:54:04;;;;;;;6.32;1.85;;;13.90;99.90;;;;;;5011989;28;20065;-69
2022/04/14 03:56:30;;;;;;;6.07;2.00;;;14.00;99.90;;;;;;5033017;28;20092;-70
2022/04/14 03:58:57;;;;;;;10.60;2.00;;;14.00;99.90;;;;;;5018602;28;20492;-70
2022/04/14 04:01:24;;;;;;;10.23;2.20;;;14.00;99.90;;;;;;5017214;28;20080;-69
2022/04/14 04:03:49;;;;;;;9.30;2.10;;;14.00;99.90;;;;;;4999257;28;20041;-70
2022/04/14 04:06:15;;;;;;;7.82;2.25;;;14.00;99.90;;;;;;5018053;28;20480;-69
2022/04/14 04:08:42;;;;;;;6.93;1.95;;;14.00;99.90;;;;;;5017540;28;20059;-70
2022/04/14 04:11:08;;;;;;;8.38;2.28;;;14.10;99.90;;;;;;4999982;28;20450;-70
2022/04/14 04:13:34;;;;;;;12.05;2.00;;;14.00;99.90;;;;;;5035488;28;20117;-71
2022/04/14 04:16:00;;;;;;;5.32;1.60;;;14.10;99.90;;;;;;5018356;28;20045;-70
2022/04/14 04:18:26;;;;;;;7.72;2.00;;;14.20;99.90;;;;;;5018759;28;20048;-70
2022/04/14 04:20:52;;;;;;;10.80;2.40;;;14.10;99.90;;;;;;5018527;28;20417;-71
2022/04/14 04:23:18;;;;;;;6.25;2.40;;;14.10;99.90;;;;;;5019332;28;20053;-69
2022/04/14 04:25:44;;;;;;;5.30;1.80;;;14.20;99.90;;;;;;5014656;28;20045;-70
2022/04/14 04:28:09;;;;;;;7.05;2.08;;;14.10;99.90;;;;;;5012698;28;20033;-70
2022/04/14 04:30:35;;;;;;;6.63;1.90;;;14.10;99.90;;;;;;5030773;28;20087;-70
2022/04/14 04:33:01;;;;;;;7.75;2.20;;;14.10;99.90;;;;;;5016454;28;20132;-70
2022/04/14 04:35:28;;;;;;;7.43;2.20;;;14.10;99.90;;;;;;5035823;28;20042;-69
2022/04/14 04:37:54;;;;;;;6.93;2.33;;;14.00;99.90;;;;;;5013366;28;20049;-70
2022/04/14 04:40:20;;;;;;;6.40;2.10;;;14.10;99.90;;;;;;5013792;28;20480;-70
2022/04/14 04:42:46;;;;;;;5.50;1.85;;;14.10;99.90;;;;;;5018648;28;20088;-70
2022/04/14 04:45:12;;;;;;;9.48;2.92;;;14.00;99.90;;;;;;5018015;28;20045;-70
2022/04/14 04:47:39;;;;;;;10.27;2.22;;;14.00;99.90;;;;;;5019548;28;20065;-69
2022/04/14 04:50:07;;;;;;;5.80;2.40;;;14.00;99.90;;;;;;5018237;28;20112;-69
2022/04/14 04:52:37;;;;;;;8.02;2.13;;;14.00;99.90;;;;;;5018381;28;20674;-69
2022/04/14 04:55:03;;;;;;;6.25;1.83;;;13.90;99.90;;;;;;5035549;28;20045;-70
2022/04/14 04:57:29;;;;;;;9.50;2.17;;;13.90;99.90;;;;;;5014943;28;20049;-69
2022/04/14 04:59:55;;;;;;;7.68;2.10;;;13.90;99.90;;;;;;5034673;28;20072;-70
2022/04/14 05:02:21;;;;;;;5.55;1.92;;;13.90;99.90;;;;;;5019914;28;20034;-69
2022/04/14 05:04:48;;;;;;;9.30;2.47;;;13.80;99.90;;;;;;5002670;28;20044;-69
2022/04/14 05:07:14;;;;;;;6.93;2.33;;;13.80;99.90;;;;;;5020982;28;20055;-68
2022/04/14 05:09:40;;;;;;;7.00;2.15;;;13.80;99.90;;;;;;5037036;28;20044;-70
2022/04/14 05:12:06;;;;;;;5.43;1.70;;;13.80;99.90;;;;;;5004460;28;20034;-70
2022/04/14 05:14:32;;;;;;;6.60;1.88;;;13.90;99.90;;;;;;5021513;28;20069;-71
2022/04/14 05:16:59;;;;;;;8.38;1.77;;;13.90;99.90;;;;;;5035364;28;20030;-70
2022/04/14 05:19:25;;;;;;;6.78;2.10;;;13.90;99.90;;;;;;5032288;28;20432;-71
2022/04/14 05:21:51;;;;;;;9.75;2.35;;;13.90;99.90;;;;;;5023251;28;20068;-69
2022/04/14 05:24:16;;;;;;;7.30;2.38;;;13.90;99.90;;;;;;5019209;28;20045;-69
2022/04/14 05:26:42;;;;;;;9.02;2.03;;;13.90;99.90;;;;;;5020823;28;20381;-70
2022/04/14 05:29:09;;;;;;;6.15;1.70;;;13.90;99.90;;;;;;5006427;28;20083;-70
2022/04/14 05:31:35;;;;;;;10.30;2.70;;;13.90;99.90;;;;;;5017109;28;20038;-69
2022/04/14 05:34:01;;;;;;;10.90;2.25;;;13.90;99.90;;;;;;5019001;28;20269;-70
2022/04/14 05:36:27;;;;;;;7.15;2.00;;;14.00;99.90;;;;;;5035341;28;20042;-70
2022/04/14 05:38:53;;;;;;;7.32;2.00;;;14.10;99.90;;;;;;5035016;28;20049;-68
2022/04/14 05:41:19;;;;;;;7.63;1.80;;;14.10;99.90;;;;;;5021467;28;20037;-69
2022/04/14 05:43:45;;;;;;;7.07;2.33;;;14.10;99.90;;;;;;5020922;28;20038;-70
2022/04/14 05:46:12;;;;;;;6.85;1.95;;;14.00;99.90;;;;;;5017663;28;20068;-71
2022/04/14 05:48:37;;;;;;;7.35;2.10;;;14.00;99.90;;;;;;5034409;28;20041;-70
2022/04/14 05:51:05;;;;;;;8.63;2.30;;;14.10;99.90;;;;;;5021076;28;20141;-69
2022/04/14 05:53:32;;;;;;;6.50;2.03;;;14.10;99.90;;;;;;5021861;28;20553;-70
2022/04/14 05:55:58;;;;;;;7.00;2.10;;;14.20;99.90;;;;;;5016358;28;20033;-69
2022/04/14 05:58:24;;;;;;;7.97;1.95;;;14.20;99.90;;;;;;5018249;28;20049;-71
2022/04/14 06:00:51;;;;;;;10.52;2.00;;;14.30;99.90;;;;;;5031365;28;20045;-69
2022/04/14 06:03:17;;;;;;;7.32;2.38;;;14.30;99.90;;;;;;5031570;28;20452;-70
2022/04/14 06:05:43;;;;;;;8.05;2.22;;;14.40;99.90;;;;;;5017347;28;20042;-70
2022/04/14 06:08:09;;;;;;;7.72;2.00;;;14.50;99.90;;;;;;5019575;28;20397;-69
2022/04/14 06:10:35;;;;;;;8.38;2.42;;;14.50;99.90;;;;;;5021859;28;20044;-70
2022/04/14 06:13:01;;;;;;;10.55;1.83;;;14.50;99.90;;;;;;5015257;28;20037;-71
2022/04/14 06:15:29;;;;;;;6.80;1.98;;;14.60;99.90;;;;;;5027521;28;20124;-70
2022/04/14 06:17:55;;;;;;;9.90;2.72;;;14.70;99.90;;;;;;5004468;28;20045;-70
2022/04/14 06:20:21;;;;;;;6.63;1.85;;;14.70;99.90;;;;;;5000200;28;20473;-70
2022/04/14 06:22:49;;;;;;;5.72;2.20;;;14.80;99.90;;;;;;5015560;28;20057;-70
2022/04/14 06:25:17;;;;;;;9.18;2.60;;;14.90;99.90;;;;;;5040021;28;20984;-70
2022/04/14 06:27:44;;;;;;;7.72;1.90;;;14.90;99.90;;;;;;5019016;28;20041;-71
2022/04/14 06:30:13;;;;;;;9.45;2.65;;;14.90;99.90;;;;;;5017576;28;20045;-71
2022/04/14 06:32:40;;;;;;;8.50;2.35;;;15.00;99.90;;;;;;5022750;28;20034;-69
2022/04/14 06:35:09;;;;;;;10.68;2.15;;;15.00;99.90;;;;;;5022504;28;20435;-71
2022/04/14 06:37:35;;;;;;;6.25;1.95;;;15.10;99.90;;;;;;5017743;28;20042;-70
2022/04/14 06:40:02;;;;;;;8.77;2.10;;;15.20;99.90;;;;;;5011704;28;20509;-71
2022/04/14 06:42:29;;;;;;;10.40;2.80;;;15.50;99.90;;;;;;5022205;28;20057;-71
2022/04/14 06:45:01;;;;;;;12.13;2.53;;;15.60;99.90;;;;;;5036302;28;20382;-70
2022/04/14 06:47:27;;;;;;;7.97;2.30;;;15.70;99.90;;;;;;5035368;28;20089;-70
2022/04/14 06:49:54;;;;;;;8.60;2.40;;;15.70;99.90;;;;;;5016782;28;20057;-71
2022/04/14 06:52:23;;;;;;;6.43;1.92;;;15.90;99.90;;;;;;5017429;28;20084;-70
2022/04/14 06:54:49;;;;;;;8.82;2.00;;;16.10;99.90;;;;;;5002469;28;20034;-70
2022/04/14 06:57:15;;;;;;;6.63;2.25;;;16.30;99.90;;;;;;5019256;28;20045;-71
2022/04/14 06:59:42;;;;;;;5.40;1.98;;;16.50;99.90;;;;;;5036003;28;20049;-71
2022/04/14 07:02:08;;;;;;;8.35;2.28;;;16.70;99.90;;;;;;5019037;28;20519;-71
2022/04/14 07:04:35;;;;;;;6.88;1.85;;;16.80;99.60;;;;;;5031028;28;20045;-71
2022/04/14 07:07:02;;;;;;;13.77;2.45;;;16.90;99.10;;;;;;5022443;28;20045;-70
2022/04/14 07:09:33;;;;;;;7.57;2.00;;;17.20;98.60;;;;;;5015427;28;20033;-71
2022/04/14 07:12:04;;;;;;;9.60;2.20;;;17.30;98.70;;;;;;5020413;28;20247;-73
2022/04/14 07:14:30;;;;;;;12.05;1.95;;;17.40;98.00;;;;;;4998422;28;20045;-70
2022/04/14 07:17:00;;;;;;;5.97;1.75;;;17.60;97.60;;;;;;5019912;28;20038;-70
2022/04/14 07:19:27;;;;;;;5.20;2.05;;;17.70;97.00;;;;;;5014574;28;20046;-70
2022/04/14 07:21:53;;;;;;;5.75;2.33;;;17.90;96.70;;;;;;5016240;28;20052;-71
2022/04/14 07:24:20;;;;;;;7.55;1.88;;;18.00;95.90;;;;;;5019031;28;20064;-70
2022/04/14 07:26:47;;;;;;;6.60;1.90;;;18.20;95.50;;;;;;5018111;28;20029;-71
2022/04/14 07:29:13;;;;;;;6.13;1.73;;;18.30;95.00;;;;;;4997167;28;20129;-70
2022/04/14 07:31:42;;;;;;;8.10;2.25;;;18.40;94.20;;;;;;5018531;28;20169;-70
2022/04/14 07:34:10;;;;;;;6.25;1.92;;;18.50;94.40;;;;;;5011684;28;20072;-71
2022/04/14 07:36:37;;;;;;;4.90;1.75;;;18.50;93.90;;;;;;5032676;28;20033;-70
2022/04/14 07:39:04;;;;;;;7.68;2.05;;;18.50;93.70;;;;;;5013347;28;20099;-70
2022/04/14 07:41:30;;;;;;;7.88;1.80;;;18.50;94.20;;;;;;5032576;28;20526;-70
2022/04/14 07:43:58;;;;;;;5.32;1.90;;;18.60;93.90;;;;;;5013915;28;20389;-70
2022/04/14 07:46:24;;;;;;;4.82;1.90;;;18.60;93.60;;;;;;5027713;28;20029;-70
2022/04/14 07:48:50;;;;;;;3.30;1.60;;;18.70;93.20;;;;;;4994570;28;20495;-71
2022/04/14 07:51:16;;;;;;;4.80;1.80;;;18.70;92.30;;;;;;5030529;28;20037;-71
2022/04/14 07:53:42;;;;;;;6.78;2.15;;;18.80;91.90;;;;;;5017134;28;20503;-71
2022/04/14 07:56:08;;;;;;;5.43;1.80;;;18.90;91.90;;;;;;5013520;28;20113;-71
2022/04/14 07:58:37;;;;;;;5.18;2.03;;;18.90;91.90;;;;;;4999098;28;20057;-71
2022/04/14 08:01:03;;;;;;;5.78;1.73;;;19.00;91.60;;;;;;5001357;28;20555;-73
2022/04/14 08:03:29;;;;;;;6.30;1.60;;;19.10;91.50;;;;;;5021865;28;20086;-72
2022/04/14 08:05:55;;;;;;;5.10;1.50;;;19.00;91.40;;;;;;5012909;28;20111;-70
2022/04/14 08:08:23;;;;;;;6.95;2.10;;;19.00;91.30;;;;;;5016067;28;20125;-71
2022/04/14 08:10:50;;;;;;;4.85;2.08;;;19.00;91.40;;;;;;5001891;28;20038;-70
2022/04/14 08:13:18;;;;;;;10.07;1.98;;;19.10;91.50;;;;;;5018524;28;20141;-71
2022/04/14 08:15:44;;;;;;;8.45;2.10;;;19.20;92.00;;;;;;5015782;28;20457;-71
2022/04/14 08:18:11;;;;;;;6.38;1.90;;;19.20;92.30;;;;;;5014851;28;20113;-71
2022/04/14 08:20:41;;;;;;;9.40;1.92;;;19.30;92.20;;;;;;5020306;28;20041;-71
2022/04/14 08:23:14;;;;;;;8.27;2.15;;;19.30;92.20;;;;;;5005327;28;20128;-72
2022/04/14 08:25:40;;;;;;;;;;;19.30;92.30;;;;;;5022495;28;20212;-72
2022/04/14 08:28:07;;;;;;;7.03;2.08;;;19.40;92.60;;;;;;5005117;28;20344;-72
2022/04/14 08:30:35;;;;;;;5.90;1.90;;;19.50;92.10;;;;;;4989699;28;20080;-72
2022/04/14 08:33:05;;;;;;;6.82;1.67;;;19.70;92.00;;;;;;5008057;28;20057;-71
2022/04/14 08:35:32;;;;;;;6.60;1.80;;;20.30;91.40;;;;;;4998875;28;20041;-72
2022/04/14 08:38:01;;;;;;;8.18;2.28;;;20.60;91.40;;;;;;5002855;28;20052;-71
2022/04/14 08:40:34;;;;;;;6.18;1.83;;;21.40;90.80;;;;;;5003553;28;20131;-72
2022/04/14 08:43:04;;;;;;;12.10;2.50;;;22.10;90.60;;;;;;4988379;28;20033;-72
2022/04/14 08:45:36;;;;;;;7.53;2.22;;;23.00;89.30;;;;;;5017931;28;20153;-71
2022/04/14 08:48:04;;;;;;;7.55;1.95;;;23.70;87.60;;;;;;4978165;28;20096;-72
2022/04/14 08:50:32;;;;;;;4.80;1.88;;;24.30;86.80;;;;;;5001824;28;20106;-71
2022/04/14 08:53:03;;;;;;;7.10;2.33;;;24.90;84.70;;;;;;4969924;28;20041;-71
2022/04/14 08:55:29;;;;;;;8.95;2.15;;;24.00;84.90;;;;;;4985778;28;20125;-72
2022/04/14 08:57:57;;;;;;;6.15;2.05;;;23.20;85.40;;;;;;4987053;28;20046;-72
2022/04/14 09:00:23;;;;;;;6.30;1.80;;;22.60;86.70;;;;;;4993438;28;20038;-72
2022/04/14 09:02:51;;;;;;;5.57;1.70;;;22.80;86.70;;;;;;5011626;28;20048;-70
2022/04/14 09:05:17;;;;;;;7.88;2.10;;;22.60;85.90;;;;;;5005494;28;20104;-71
2022/04/14 09:07:51;;;;;;;8.65;2.00;;;22.80;86.10;;;;;;5000677;28;20053;-72
2022/04/14 09:10:19;;;;;;;8.00;2.10;;;23.40;85.70;;;;;;4983717;28;20045;-72
2022/04/14 09:12:51;;;;;;;6.10;2.08;;;22.90;86.00;;;;;;4984529;28;20041;-72
2022/04/14 09:15:18;;;;;;;6.03;2.17;;;22.60;86.50;;;;;;5001028;28;20097;-71
2022/04/14 09:17:44;;;;;;;6.43;2.20;;;23.10;86.30;;;;;;5027502;28;20045;-70
2022/04/14 09:20:28;;;;;;;6.35;2.55;;;23.70;86.30;;;;;;4985797;28;20054;-71
2022/04/14 09:23:15;;;;;;;9.27;1.98;;;24.00;85.20;;;;;;4986954;28;20148;-71
2022/04/14 09:25:42;;;;;;;11.50;2.13;;;23.80;85.50;;;;;;4989956;28;20149;-71
2022/04/14 09:28:15;;;;;;;6.80;2.40;;;23.40;85.70;;;;;;4986946;28;20057;-72
2022/04/14 09:30:58;;;;;;;7.75;2.40;;;23.80;85.80;;;;;;4984618;28;20053;-71
2022/04/14 09:33:24;;;;;;;6.65;2.08;;;24.70;84.00;;;;;;4983915;28;20038;-70
2022/04/14 09:36:14;;;;;;;6.15;2.30;;;24.80;84.30;;;;;;4998885;28;20034;-72
2022/04/14 09:38:58;;;;;;;6.88;2.25;;;25.90;83.10;;;;;;4987003;28;20100;-72
2022/04/14 09:41:38;;;;;;;5.07;2.03;;;26.10;82.60;;;;;;5018079;28;20443;-72
2022/04/14 09:44:08;;;;;;;7.55;2.03;;;26.10;81.50;;;;;;5015736;28;20075;-71
2022/04/14 09:46:43;;;;;;;9.50;2.35;;;24.80;81.70;;;;;;5001064;28;20034;-70
2022/04/14 09:49:14;;;;;;;10.35;2.08;;;25.30;82.40;;;;;;4987942;28;20046;-71
2022/04/14 09:51:41;;;;;;;5.50;1.83;;;25.30;81.80;;;;;;5004580;28;20076;-72
2022/04/14 09:54:12;;;;;;;8.68;1.70;;;24.90;82.50;;;;;;5016139;28;20551;-72
2022/04/14 09:56:51;;;;;;;8.25;1.77;;;25.40;82.10;;;;;;4988860;28;20095;-71
2022/04/14 09:59:20;;;;;;;6.57;2.22;;;25.90;81.50;;;;;;4994946;28;20120;-72
2022/04/14 10:01:48;;;;;;;8.52;2.30;;;26.20;81.20;;;;;;5003585;28;20065;-72
2022/04/14 10:04:35;;;;;;;8.70;2.05;;;26.50;81.10;;;;;;5012019;28;20068;-72
2022/04/14 10:07:03;;;;;;;7.90;1.67;;;26.70;80.60;;;;;;5022292;28;20523;-71
2022/04/14 10:09:30;;;;;;;4.93;1.83;;;27.00;80.30;;;;;;4983096;28;20524;-71
2022/04/14 10:11:57;;;;;;;9.77;2.35;;;26.90;79.60;;;;;;4970510;28;20098;-72
2022/04/14 10:14:24;;;;;;;7.60;1.67;;;26.80;80.20;;;;;;4986200;28;20046;-72
2022/04/14 10:16:51;;;;;;;8.45;1.98;;;26.70;80.70;;;;;;5002034;28;20057;-72
2022/04/14 10:19:19;;;;;;;10.27;2.30;;;26.40;80.60;;;;;;5012671;28;20102;-73
2022/04/14 10:21:46;;;;;;;5.50;2.00;;;26.10;82.10;;;;;;5005717;28;20040;-73
2022/04/14 10:24:14;;;;;;;10.60;2.45;;;25.40;82.50;;;;;;4985193;28;20555;-72
2022/04/14 10:26:42;;;;;;;4.88;1.92;;;25.00;81.60;;;;;;4989920;28;20428;-71
2022/04/14 10:29:12;;;;;;;5.70;2.00;;;24.80;81.20;;;;;;4985432;28;20065;-71
2022/04/14 10:31:40;;;;;;;5.65;2.13;;;24.90;81.40;;;;;;4983424;28;20042;-72
2022/04/14 10:34:08;;;;;;;11.25;2.00;;;25.10;81.30;;;;;;4982801;28;20046;-71
2022/04/14 10:36:42;;;;;;;6.97;1.88;;;25.30;80.80;;;;;;4985205;28;22737;-72
2022/04/14 10:39:14;;;;;;;5.90;1.60;;;25.10;79.20;;;;;;4988007;28;20041;-72
2022/04/14 10:41:45;;;;;;;4.72;1.42;;;25.10;78.60;;;;;;5013231;28;20044;-71
2022/04/14 10:44:13;;;;;;;4.60;1.50;;;25.50;76.60;;;;;;5009532;28;21307;-73
2022/04/14 10:46:41;;;;;;;5.45;1.42;;;25.70;76.90;;;;;;5026565;28;20042;-71
2022/04/14 10:49:16;;;;;;;7.50;2.20;;;25.30;77.00;;;;;;4999766;28;20413;-71
2022/04/14 10:51:43;;;;;;;7.30;1.60;;;24.50;77.60;;;;;;4997366;28;20136;-72
2022/04/14 10:54:11;;;;;;;9.73;1.95;;;24.30;78.60;;;;;;5011594;28;20037;-72
2022/04/14 10:56:36;;;;;;;11.88;2.22;;;24.20;82.90;;;;;;5030992;28;20145;-73
2022/04/14 10:59:19;;;;;;;10.68;2.47;;;24.30;84.80;;;;;;4997932;28;20508;-71
2022/04/14 11:01:46;;;;;;;12.48;3.17;;;24.10;87.20;;;;;;4994820;28;20159;-71
2022/04/14 11:04:30;;;;;;;12.85;3.10;;;24.70;87.90;;;;;;4997096;28;20476;-72
2022/04/14 11:07:01;;;;;;;16.02;2.67;;;24.40;88.10;;;;;;5003359;28;20038;-72
2022/04/14 11:09:42;;;;;;;11.05;2.70;;;24.80;87.50;;;;;;5028264;28;20065;-72
2022/04/14 11:12:32;;;;;;;11.75;2.65;;;25.00;87.20;;;;;;4999356;28;20041;-74
2022/04/14 11:15:06;;;;;;;10.15;2.70;;;25.30;87.70;;;;;;5027683;28;20046;-73
2022/04/14 11:20:23;;;;;;;9.63;2.40;;;25.40;85.50;;;;;;4999611;28;20042;-72
2022/04/14 11:23:08;;;;;;;13.88;2.50;;;25.30;85.80;;;;;;4998505;28;20046;-71
2022/04/14 11:25:43;;;;;;;9.48;2.53;;;25.20;86.50;;;;;;5027499;28;20041;-72
2022/04/14 11:28:31;;;;;;;7.97;2.80;;;26.20;85.30;;;;;;4998299;28;20041;-72
2022/04/14 11:31:01;;;;;;;12.05;2.53;;;25.80;84.10;;;;;;5031008;28;20039;-71
2022/04/14 11:33:29;;;;;;;12.27;2.63;;;25.60;85.10;;;;;;5026956;28;20084;-71
2022/04/14 11:36:09;;;;;;;11.88;2.60;;;26.00;83.90;;;;;;4997091;28;20030;-73
2022/04/14 11:39:03;;;;;;;10.68;2.55;;;26.20;84.10;;;;;;5024934;28;20133;-71
2022/04/14 11:41:36;;;;;;;12.95;2.78;;;26.10;82.30;;;;;;5028089;28;20148;-72
2022/04/14 11:44:31;;;;;;;7.88;2.30;;;25.70;82.10;;;;;;5001384;28;20099;-70
2022/04/14 11:47:01;;;;;;;6.07;2.20;;;25.70;79.40;;;;;;4984701;28;20344;-71
2022/04/14 11:49:32;;;;;;;6.95;1.88;;;25.60;77.70;;;;;;5031814;28;20592;-72
2022/04/14 11:52:03;;;;;;;5.40;2.33;;;25.30;76.50;;;;;;5028535;28;20041;-71
2022/04/14 11:54:31;;;;;;;6.20;1.90;;;25.80;75.60;;;;;;5031083;28;20259;-70
2022/04/14 11:57:07;;;;;;;6.05;1.88;;;26.00;73.80;;;;;;4993873;28;20061;-72
2022/04/14 11:59:37;;;;;;;4.13;1.65;;;25.60;71.40;;;;;;4996777;28;20395;-71
2022/04/14 12:02:07;;;;;;;3.83;1.45;;;26.00;71.20;;;;;;5029707;28;20046;-71
2022/04/14 12:04:54;;;;;;;7.25;1.70;;;26.60;71.80;;;;;;4998218;28;20050;-71
2022/04/14 12:07:22;;;;;;;6.65;1.70;;;26.90;71.60;;;;;;5013160;28;20038;-72
2022/04/14 12:10:01;;;;;;;8.95;2.08;;;27.20;72.50;;;;;;5027347;28;20038;-72
2022/04/14 12:12:31;;;;;;;5.70;2.08;;;27.10;71.60;;;;;;5025406;28;20909;-71
2022/04/14 12:14:57;;;;;;;10.27;2.00;;;27.00;70.80;;;;;;5001601;28;20034;-71
2022/04/14 12:17:24;;;;;;;6.47;1.95;;;27.10;70.80;;;;;;4994076;28;20393;-72
2022/04/14 12:19:56;;;;;;;6.15;1.80;;;27.50;70.60;;;;;;5030778;28;20474;-71
2022/04/14 12:22:28;;;;;;;7.07;1.60;;;27.30;69.30;;;;;;4999705;28;20046;-72
2022/04/14 12:24:57;;;;;;;7.00;1.90;;;27.30;69.60;;;;;;5030072;28;20043;-70
2022/04/14 12:27:34;;;;;;;4.03;1.52;;;27.10;68.80;;;;;;4997880;28;20126;-71
2022/04/14 12:30:14;;;;;;;7.55;1.70;;;27.20;68.10;;;;;;4996703;28;20052;-71
2022/04/14 12:32:43;;;;;;;5.00;1.67;;;27.80;68.80;;;;;;4995622;28;20046;-71
2022/04/14 12:35:10;;;;;;;7.22;2.20;;;27.90;68.30;;;;;;5030537;28;20031;-72
2022/04/14 12:37:40;;;;;;;5.45;1.95;;;28.00;68.80;;;;;;4997572;28;20410;-72
2022/04/14 12:40:14;;;;;;;7.43;2.50;;;27.90;69.90;;;;;;5018278;28;20053;-72
2022/04/14 12:42:44;;;;;;;8.20;2.33;;;28.50;69.80;;;;;;4995906;28;20046;-72
2022/04/14 12:45:17;;;;;;;5.03;2.00;;;28.80;69.80;;;;;;4993269;28;20042;-73
2022/04/14 12:47:45;;;;;;;8.15;2.40;;;29.10;70.30;;;;;;5029433;28;20038;-71
2022/04/14 12:50:12;;;;;;;6.45;2.08;;;28.90;70.80;;;;;;4997173;28;20058;-74
2022/04/14 12:52:39;;;;;;;8.48;2.15;;;28.60;70.60;;;;;;4994500;28;20042;-71
2022/04/14 12:55:06;;;;;;;6.60;2.03;;;28.70;71.40;;;;;;5028925;28;20050;-71